Time;durP1;ratioP1;P1;durP2;ratioP2;P2;SDS_P1;SDS_P2;PMS_P1;PMS_P2;Temp;Humidity;BMP_temperature;BMP_pressure;BME280_temperature;BME280_humidity;BME280_pressure;Samples;Min_cycle;Max_cycle;Signal;HPM_P1;HPM_P2
2022/03/16 00:00:00;;;;;;;1.00;0.70;;;22.20;53.30;;;;;;4970007;28;20424;-89
2022/03/16 00:02:26;;;;;;;1.40;1.03;;;22.20;53.30;;;;;;4970431;28;20429;-89
2022/03/16 00:04:54;;;;;;;2.07;1.20;;;22.20;53.30;;;;;;4969982;28;20572;-89
2022/03/16 00:07:21;;;;;;;1.07;0.90;;;22.20;53.30;;;;;;4954257;28;20498;-88
2022/03/16 00:09:48;;;;;;;0.90;0.80;;;22.20;53.30;;;;;;4969578;28;20935;-88
2022/03/16 00:12:14;;;;;;;1.03;0.93;;;22.20;53.30;;;;;;4987190;28;20448;-89
2022/03/16 00:14:41;;;;;;;1.43;1.10;;;22.20;53.30;;;;;;4970035;28;20432;-89
2022/03/16 00:17:07;;;;;;;1.60;1.10;;;22.20;53.20;;;;;;4987594;28;20540;-89
2022/03/16 00:19:34;;;;;;;1.20;1.10;;;22.20;53.20;;;;;;4969922;28;20432;-89
2022/03/16 00:22:02;;;;;;;1.30;0.97;;;22.20;53.20;;;;;;4970122;28;20421;-89
2022/03/16 00:24:28;;;;;;;1.60;1.10;;;22.20;53.20;;;;;;4970513;28;20429;-89
2022/03/16 00:26:54;;;;;;;1.40;1.00;;;22.20;53.20;;;;;;4970559;28;20440;-89
2022/03/16 00:29:20;;;;;;;1.70;1.17;;;22.20;53.30;;;;;;4989229;28;20420;-89
2022/03/16 00:31:46;;;;;;;1.30;1.00;;;22.20;53.20;;;;;;4974260;28;20182;-89
2022/03/16 00:34:12;;;;;;;1.47;1.00;;;22.10;53.10;;;;;;4974014;28;20428;-89
2022/03/16 00:36:37;;;;;;;1.20;0.90;;;22.10;53.10;;;;;;4991224;28;20209;-89
2022/03/16 00:42:25;;;;;;;1.20;0.90;;;22.10;53.10;;;;;;4990955;28;20204;-90
2022/03/16 00:44:52;;;;;;;1.13;0.90;;;22.10;53.20;;;;;;4990766;28;20408;-88
2022/03/16 00:47:17;;;;;;;1.33;1.00;;;22.10;53.20;;;;;;4990324;28;20174;-88
2022/03/16 00:53:05;;;;;;;1.20;0.90;;;22.10;53.20;;;;;;4971163;29;20161;-89
2022/03/16 00:55:31;;;;;;;1.00;0.80;;;22.10;53.20;;;;;;4971413;29;20421;-89
2022/03/16 01:01:19;;;;;;;1.20;0.97;;;22.10;53.30;;;;;;4971585;29;20533;-89
2022/03/16 01:03:44;;;;;;;1.03;0.70;;;22.00;53.30;;;;;;4954048;29;20438;-89
2022/03/16 01:06:15;;;;;;;1.70;1.60;;;22.00;53.30;;;;;;4969934;28;20253;-89
2022/03/16 01:08:44;;;;;;;1.10;0.90;;;22.10;53.40;;;;;;4970488;29;20198;-89
2022/03/16 01:11:14;;;;;;;1.27;1.03;;;22.10;53.30;;;;;;4971002;29;20845;-88
2022/03/16 01:13:42;;;;;;;1.30;0.93;;;22.10;53.30;;;;;;4971012;29;20421;-89
2022/03/16 01:16:08;;;;;;;1.20;0.97;;;22.10;53.30;;;;;;4953313;29;20501;-89
2022/03/16 01:18:33;;;;;;;2.27;1.00;;;22.10;53.30;;;;;;4953477;29;20501;-89
2022/03/16 01:20:59;;;;;;;1.00;0.80;;;22.10;53.30;;;;;;4969621;28;20493;-89
2022/03/16 01:23:25;;;;;;;1.20;0.90;;;22.10;53.30;;;;;;4973114;29;20171;-91
2022/03/16 01:25:54;;;;;;;1.00;0.80;;;22.10;53.30;;;;;;4957266;29;20436;-91
2022/03/16 01:28:20;;;;;;;1.10;0.90;;;22.10;53.20;;;;;;4957586;29;20182;-91
2022/03/16 01:30:46;;;;;;;1.10;0.80;;;22.10;53.30;;;;;;4941531;29;20425;-91
2022/03/16 01:33:12;;;;;;;1.30;0.90;;;22.10;53.20;;;;;;4957254;29;20178;-91
2022/03/16 01:35:39;;;;;;;1.23;0.80;;;22.10;53.30;;;;;;4957858;29;20418;-91
2022/03/16 01:38:05;;;;;;;1.20;1.00;;;22.00;53.20;;;;;;4956875;29;20417;-91
2022/03/16 01:40:31;;;;;;;1.10;0.80;;;22.00;53.10;;;;;;4959081;28;21917;-91
2022/03/16 01:42:57;;;;;;;1.10;0.83;;;22.10;53.20;;;;;;4976670;28;20197;-90
2022/03/16 01:45:23;;;;;;;2.10;1.10;;;22.00;53.10;;;;;;4976395;28;20643;-91
2022/03/16 01:47:49;;;;;;;1.40;0.90;;;22.00;53.10;;;;;;4993220;28;20446;-91
2022/03/16 01:50:15;;;;;;;1.20;0.90;;;22.00;53.10;;;;;;4976895;28;20511;-91
2022/03/16 01:52:41;;;;;;;1.33;1.00;;;22.00;53.10;;;;;;4993302;28;20413;-91
2022/03/16 01:55:10;;;;;;;1.00;0.70;;;22.00;53.10;;;;;;4991769;28;20515;-91
2022/03/16 01:57:42;;;;;;;1.70;1.10;;;22.00;53.10;;;;;;4976234;28;20465;-91
2022/03/16 02:00:09;;;;;;;1.10;0.80;;;22.00;53.10;;;;;;4976517;28;20421;-90
2022/03/16 02:02:35;;;;;;;1.00;0.77;;;22.00;53.10;;;;;;4972559;29;20457;-91
2022/03/16 02:05:01;;;;;;;1.30;0.90;;;22.00;53.20;;;;;;4976283;28;20420;-91
2022/03/16 02:07:27;;;;;;;1.10;0.80;;;22.00;53.20;;;;;;4972454;29;20461;-91
2022/03/16 02:09:54;;;;;;;1.30;1.10;;;22.00;53.20;;;;;;4973029;29;20436;-91
2022/03/16 02:12:21;;;;;;;1.20;0.70;;;22.00;53.20;;;;;;4974098;28;20216;-91
2022/03/16 02:14:48;;;;;;;1.70;1.10;;;22.00;53.20;;;;;;4972186;29;20426;-90
2022/03/16 02:17:14;;;;;;;1.03;0.80;;;22.00;53.20;;;;;;4970865;28;20465;-90
2022/03/16 02:19:40;;;;;;;1.20;0.90;;;21.90;53.10;;;;;;4970637;29;20171;-90
2022/03/16 02:22:08;;;;;;;1.33;0.87;;;21.90;53.10;;;;;;4970814;29;20167;-90
2022/03/16 02:24:34;;;;;;;1.67;1.10;;;21.90;53.10;;;;;;4970020;29;20178;-90
2022/03/16 02:27:00;;;;;;;1.20;0.97;;;21.90;53.10;;;;;;4970288;29;20410;-90
2022/03/16 02:32:48;;;;;;;1.40;0.93;;;21.90;53.10;;;;;;4971661;29;20747;-90
2022/03/16 02:35:14;;;;;;;1.00;0.87;;;21.90;53.10;;;;;;4971036;28;20422;-89
2022/03/16 02:37:40;;;;;;;1.13;0.80;;;21.90;53.20;;;;;;4969342;29;20206;-89
2022/03/16 02:40:09;;;;;;;1.20;0.90;;;21.90;53.20;;;;;;4969948;29;20414;-89
2022/03/16 02:46:10;;;;;;;1.20;0.80;;;21.90;53.10;;;;;;4970763;29;20971;-89
2022/03/16 02:48:36;;;;;;;1.00;0.90;;;21.90;53.20;;;;;;4986084;28;20457;-90
2022/03/16 02:51:01;;;;;;;1.10;0.93;;;21.90;53.20;;;;;;4970708;28;20414;-89
2022/03/16 02:53:27;;;;;;;1.10;0.80;;;21.90;53.20;;;;;;4969302;29;20680;-90
2022/03/16 02:55:53;;;;;;;0.90;0.80;;;21.90;53.10;;;;;;4969419;29;20202;-89
2022/03/16 02:58:19;;;;;;;1.20;0.90;;;21.90;53.10;;;;;;4969825;29;20174;-89
2022/03/16 03:00:45;;;;;;;1.10;0.90;;;21.90;53.10;;;;;;4970078;29;20182;-89
2022/03/16 03:03:11;;;;;;;1.10;0.70;;;21.80;53.00;;;;;;4969354;29;20186;-90
2022/03/16 03:05:38;;;;;;;1.00;0.87;;;21.90;53.10;;;;;;4968955;29;20437;-89
2022/03/16 03:08:04;;;;;;;1.10;0.70;;;21.90;53.20;;;;;;4969950;28;20428;-89
2022/03/16 03:10:30;;;;;;;1.20;0.90;;;21.90;53.20;;;;;;4969935;29;20509;-89
2022/03/16 03:12:56;;;;;;;1.00;0.70;;;21.80;53.10;;;;;;4970152;29;20425;-89
2022/03/16 03:15:25;;;;;;;1.17;0.90;;;21.80;53.10;;;;;;4969146;29;20430;-89
2022/03/16 03:17:53;;;;;;;1.30;0.90;;;21.80;53.10;;;;;;4984347;28;20707;-89
2022/03/16 03:20:19;;;;;;;1.10;0.70;;;21.90;53.20;;;;;;4968789;29;20442;-89
2022/03/16 03:22:45;;;;;;;0.90;0.70;;;21.90;53.20;;;;;;4968707;29;20425;-89
2022/03/16 03:25:15;;;;;;;1.10;0.80;;;21.90;53.20;;;;;;4969212;29;20425;-89
2022/03/16 03:27:44;;;;;;;0.90;0.70;;;21.90;53.20;;;;;;4985480;28;20185;-89
2022/03/16 03:30:11;;;;;;;0.90;0.60;;;21.90;53.10;;;;;;4968976;29;20785;-89
2022/03/16 03:32:37;;;;;;;1.40;1.10;;;21.90;53.10;;;;;;4969950;28;20417;-89
2022/03/16 03:35:03;;;;;;;1.30;1.00;;;21.90;53.10;;;;;;4985072;28;20426;-89
2022/03/16 03:37:29;;;;;;;1.10;0.90;;;21.90;53.10;;;;;;4968656;29;20481;-89
2022/03/16 03:39:56;;;;;;;1.30;0.90;;;21.90;53.10;;;;;;4969303;29;20414;-91
2022/03/16 03:42:22;;;;;;;1.00;0.70;;;21.90;53.10;;;;;;4969319;29;20426;-89
2022/03/16 03:44:48;;;;;;;1.10;0.90;;;21.90;53.10;;;;;;4971458;28;20422;-89
2022/03/16 03:47:14;;;;;;;1.03;0.77;;;21.90;53.10;;;;;;4970090;29;20179;-89
2022/03/16 03:49:42;;;;;;;1.13;0.80;;;21.90;53.10;;;;;;4970573;29;20453;-89
2022/03/16 03:52:08;;;;;;;1.10;0.80;;;21.90;53.10;;;;;;4971466;28;20413;-91
2022/03/16 03:54:34;;;;;;;1.10;0.80;;;21.80;53.00;;;;;;4971440;28;20452;-90
2022/03/16 03:57:01;;;;;;;0.90;0.80;;;21.90;53.00;;;;;;4970825;28;20458;-90
2022/03/16 03:59:27;;;;;;;1.20;0.80;;;21.90;53.00;;;;;;4969724;29;20180;-91
2022/03/16 04:01:53;;;;;;;1.10;0.80;;;21.80;53.00;;;;;;4969860;29;20481;-90
2022/03/16 04:04:19;;;;;;;1.17;0.90;;;21.80;53.00;;;;;;4970113;28;20422;-90
2022/03/16 04:06:45;;;;;;;1.20;0.80;;;21.80;53.00;;;;;;4986002;28;20206;-90
2022/03/16 04:09:11;;;;;;;1.07;0.70;;;21.80;52.90;;;;;;4971417;28;20422;-90
2022/03/16 04:11:37;;;;;;;0.90;0.70;;;21.80;52.90;;;;;;4985733;28;20428;-89
2022/03/16 04:14:03;;;;;;;1.00;0.87;;;21.80;53.00;;;;;;4970073;29;20182;-90
2022/03/16 04:16:29;;;;;;;1.10;0.83;;;21.80;53.00;;;;;;4969267;29;20538;-90
2022/03/16 04:19:32;;;;;;;1.30;0.90;;;21.80;53.00;;;;;;4969224;29;20441;-89
2022/03/16 04:21:58;;;;;;;1.20;1.10;;;21.80;53.00;;;;;;4969677;29;20636;-90
2022/03/16 04:24:24;;;;;;;0.93;0.80;;;21.80;53.00;;;;;;4970808;28;20522;-90
2022/03/16 04:26:50;;;;;;;0.90;0.70;;;21.80;53.00;;;;;;4969718;29;20182;-90
2022/03/16 04:29:15;;;;;;;0.97;0.80;;;21.80;53.00;;;;;;4970368;29;20262;-90
2022/03/16 04:31:41;;;;;;;1.10;0.80;;;21.80;53.00;;;;;;4970304;29;20186;-90
2022/03/16 04:34:07;;;;;;;1.07;0.80;;;21.80;53.00;;;;;;4971743;29;20189;-90
2022/03/16 04:36:33;;;;;;;1.00;0.70;;;21.80;53.00;;;;;;4970356;29;20230;-90
2022/03/16 04:38:59;;;;;;;1.13;0.80;;;21.80;53.00;;;;;;4969568;29;20198;-90
2022/03/16 04:41:28;;;;;;;1.10;0.87;;;21.80;53.00;;;;;;4969580;29;20421;-91
2022/03/16 04:43:53;;;;;;;1.13;0.70;;;21.80;53.00;;;;;;4969182;29;20182;-90
2022/03/16 04:46:19;;;;;;;1.10;0.90;;;21.80;53.00;;;;;;4970042;29;20426;-89
2022/03/16 04:48:47;;;;;;;1.30;0.90;;;21.80;53.00;;;;;;4985810;28;20206;-90
2022/03/16 04:51:13;;;;;;;1.37;1.07;;;21.80;53.00;;;;;;4968798;29;20177;-90
2022/03/16 04:53:40;;;;;;;1.60;0.93;;;21.80;53.00;;;;;;4970396;28;20930;-90
2022/03/16 04:56:05;;;;;;;0.90;0.70;;;21.80;53.00;;;;;;4969494;29;20450;-90
2022/03/16 04:58:32;;;;;;;0.90;0.70;;;21.70;52.90;;;;;;4970062;29;20186;-90
2022/03/16 05:00:59;;;;;;;1.27;0.90;;;21.70;52.90;;;;;;4969538;29;20175;-90
2022/03/16 05:03:25;;;;;;;1.23;0.80;;;21.70;52.90;;;;;;4970554;28;20501;-90
2022/03/16 05:05:51;;;;;;;1.13;0.80;;;21.70;52.90;;;;;;4970301;28;20417;-90
2022/03/16 05:08:17;;;;;;;1.63;1.00;;;21.70;52.90;;;;;;4969508;29;20422;-89
2022/03/16 05:10:43;;;;;;;0.90;0.70;;;21.70;52.90;;;;;;4972059;28;20532;-90
2022/03/16 05:13:09;;;;;;;1.33;0.80;;;21.70;52.90;;;;;;4971528;28;20177;-90
2022/03/16 05:15:35;;;;;;;1.70;0.80;;;21.70;53.00;;;;;;4959354;28;20425;-90
2022/03/16 05:21:26;;;;;;;1.00;0.70;;;21.70;52.90;;;;;;4994139;28;20217;-90
2022/03/16 05:24:10;;;;;;;1.33;0.90;;;21.70;52.90;;;;;;4977813;28;20464;-92
2022/03/16 05:26:36;;;;;;;1.13;0.80;;;21.70;53.00;;;;;;4992886;28;20424;-90
2022/03/16 05:29:05;;;;;;;1.13;1.00;;;21.60;52.90;;;;;;4968932;29;20414;-91
2022/03/16 05:31:32;;;;;;;1.37;0.90;;;21.60;52.90;;;;;;4974376;29;20625;-87
2022/03/16 05:33:58;;;;;;;1.80;0.90;;;21.60;52.90;;;;;;4956735;29;20513;-90
2022/03/16 05:36:31;;;;;;;0.90;0.70;;;21.60;52.90;;;;;;4956346;29;20546;-90
2022/03/16 05:39:00;;;;;;;1.17;0.80;;;21.60;52.90;;;;;;4969429;28;20185;-91
2022/03/16 05:41:26;;;;;;;1.00;0.67;;;21.60;52.90;;;;;;4975153;28;20417;-90
2022/03/16 05:43:52;;;;;;;1.10;0.80;;;21.60;52.90;;;;;;4975988;28;20428;-90
2022/03/16 05:46:18;;;;;;;1.10;0.90;;;21.60;52.90;;;;;;4975559;28;20488;-90
2022/03/16 05:48:44;;;;;;;1.40;0.80;;;21.60;52.90;;;;;;4994789;28;20174;-90
2022/03/16 05:51:10;;;;;;;1.10;0.80;;;21.60;52.90;;;;;;4975444;28;20417;-90
2022/03/16 05:53:36;;;;;;;1.33;1.00;;;21.60;52.90;;;;;;4975090;28;20888;-89
2022/03/16 05:56:02;;;;;;;0.90;0.70;;;21.60;52.90;;;;;;4975067;28;20532;-90
2022/03/16 05:58:29;;;;;;;0.90;0.70;;;21.60;52.90;;;;;;4975103;28;20409;-90
2022/03/16 06:00:55;;;;;;;1.60;0.83;;;21.60;52.90;;;;;;4991998;28;20479;-90
2022/03/16 06:03:22;;;;;;;1.33;0.90;;;21.60;52.90;;;;;;4974865;28;20424;-89
2022/03/16 06:05:48;;;;;;;0.90;0.70;;;21.60;53.00;;;;;;4974442;28;20221;-89
2022/03/16 06:08:18;;;;;;;1.00;0.80;;;21.60;52.90;;;;;;4975200;28;20448;-92
2022/03/16 06:10:44;;;;;;;0.90;0.70;;;21.70;53.00;;;;;;4975519;28;20485;-89
2022/03/16 06:13:10;;;;;;;1.00;0.70;;;21.60;52.90;;;;;;4975044;28;20435;-89
2022/03/16 06:15:46;;;;;;;1.20;0.93;;;21.60;52.90;;;;;;4974864;28;20194;-88
2022/03/16 06:18:15;;;;;;;1.40;0.90;;;21.70;53.00;;;;;;4974895;28;20276;-88
2022/03/16 06:20:54;;;;;;;1.23;0.90;;;21.70;53.00;;;;;;4974260;28;20441;-89
2022/03/16 06:23:22;;;;;;;0.90;0.70;;;21.70;53.00;;;;;;4974343;28;20441;-89
2022/03/16 06:25:48;;;;;;;1.20;0.90;;;21.70;53.00;;;;;;4973109;28;20424;-89
2022/03/16 06:28:14;;;;;;;1.50;0.87;;;21.70;53.00;;;;;;4973233;28;20484;-88
2022/03/16 06:30:40;;;;;;;0.90;0.80;;;21.70;53.00;;;;;;4974023;28;20177;-88
2022/03/16 06:33:06;;;;;;;1.03;0.90;;;21.70;53.50;;;;;;4990831;28;20460;-89
2022/03/16 06:35:32;;;;;;;1.10;0.90;;;21.70;53.00;;;;;;4991097;28;20197;-88
2022/03/16 06:37:58;;;;;;;2.10;0.90;;;21.70;53.00;;;;;;4974163;28;20433;-90
2022/03/16 06:40:30;;;;;;;1.30;0.80;;;21.70;53.00;;;;;;4991253;28;20396;-90
2022/03/16 06:43:00;;;;;;;1.13;0.90;;;21.70;52.90;;;;;;4973702;28;20188;-90
2022/03/16 06:45:30;;;;;;;1.30;1.00;;;21.70;52.90;;;;;;4990611;28;20421;-88
2022/03/16 06:47:57;;;;;;;1.10;0.83;;;21.70;52.90;;;;;;4974100;28;20460;-89
2022/03/16 06:50:24;;;;;;;1.10;0.80;;;21.70;52.90;;;;;;4973716;28;20428;-89
2022/03/16 06:52:50;;;;;;;0.90;0.80;;;21.70;52.90;;;;;;4974248;28;20456;-89
2022/03/16 06:55:20;;;;;;;1.07;0.77;;;21.70;52.80;;;;;;4990877;28;20417;-89
2022/03/16 06:57:49;;;;;;;1.10;0.90;;;21.80;52.90;;;;;;4973668;28;20465;-88
2022/03/16 07:00:25;;;;;;;1.20;0.80;;;21.80;52.90;;;;;;4973811;28;20428;-87
2022/03/16 07:03:06;;;;;;;1.20;1.10;;;21.80;52.90;;;;;;4957391;28;20440;-90
2022/03/16 07:05:45;;;;;;;1.30;1.00;;;21.80;52.80;;;;;;4973388;28;20512;-90
2022/03/16 07:08:35;;;;;;;1.00;0.73;;;21.80;52.80;;;;;;4993675;28;20401;-88
2022/03/16 07:11:01;;;;;;;0.90;0.70;;;21.80;52.80;;;;;;4976244;28;20421;-89
2022/03/16 07:13:27;;;;;;;1.10;0.83;;;21.80;52.80;;;;;;4973625;28;20429;-90
2022/03/16 07:15:58;;;;;;;1.20;0.90;;;21.80;52.80;;;;;;4957110;28;20217;-89
2022/03/16 07:18:24;;;;;;;1.10;0.70;;;21.80;52.80;;;;;;4973704;28;20972;-89
2022/03/16 07:24:12;;;;;;;1.13;1.00;;;21.90;52.80;;;;;;4989974;28;20460;-88
2022/03/16 07:26:39;;;;;;;1.03;0.80;;;21.80;52.80;;;;;;4972979;28;20429;-89
2022/03/16 07:29:08;;;;;;;1.00;0.80;;;21.80;52.70;;;;;;4990026;28;20593;-89
2022/03/16 07:31:34;;;;;;;1.00;0.80;;;21.90;52.80;;;;;;4972753;28;20429;-89
2022/03/16 07:34:01;;;;;;;1.00;0.80;;;21.90;52.80;;;;;;4972471;28;20794;-90
2022/03/16 07:36:27;;;;;;;1.20;0.90;;;21.90;52.70;;;;;;4990246;28;20441;-89
2022/03/16 07:39:04;;;;;;;1.93;0.90;;;21.90;52.70;;;;;;4972843;28;20429;-90
2022/03/16 07:41:32;;;;;;;1.20;0.90;;;21.90;52.70;;;;;;4973200;28;20492;-89
2022/03/16 07:43:59;;;;;;;1.53;0.97;;;21.90;52.70;;;;;;4972604;28;20413;-89
2022/03/16 07:46:27;;;;;;;1.30;0.90;;;21.90;52.70;;;;;;4972022;28;20417;-90
2022/03/16 07:48:57;;;;;;;0.90;0.70;;;21.90;52.70;;;;;;4971943;28;20445;-89
2022/03/16 07:51:26;;;;;;;1.00;0.90;;;21.90;52.70;;;;;;4973034;28;20935;-89
2022/03/16 07:53:52;;;;;;;1.30;0.90;;;21.90;52.70;;;;;;4990095;28;20405;-89
2022/03/16 07:56:18;;;;;;;1.07;0.80;;;21.90;53.20;;;;;;4956598;28;20545;-89
2022/03/16 07:58:45;;;;;;;1.00;0.70;;;21.90;52.70;;;;;;4973061;28;20435;-89
2022/03/16 08:01:11;;;;;;;1.03;0.80;;;21.90;52.70;;;;;;4973097;28;20780;-89
2022/03/16 08:03:42;;;;;;;1.20;1.00;;;21.90;52.70;;;;;;4989828;28;20424;-90
2022/03/16 08:06:07;;;;;;;1.10;0.73;;;21.90;52.60;;;;;;4972796;28;20469;-89
2022/03/16 08:08:39;;;;;;;1.03;0.73;;;21.90;52.60;;;;;;4972572;28;20488;-88
2022/03/16 08:11:06;;;;;;;1.10;0.87;;;22.00;52.80;;;;;;4989582;28;20185;-90
2022/03/16 08:13:52;;;;;;;0.97;0.73;;;22.00;52.70;;;;;;4989436;28;20443;-90
2022/03/16 08:16:20;;;;;;;1.20;0.87;;;22.00;52.70;;;;;;4972991;28;20464;-88
2022/03/16 08:18:53;;;;;;;1.10;0.70;;;21.90;52.60;;;;;;4989662;28;20397;-89
2022/03/16 08:21:19;;;;;;;0.90;0.80;;;22.00;52.70;;;;;;4972688;28;20424;-88
2022/03/16 08:23:49;;;;;;;0.90;0.70;;;22.00;52.70;;;;;;4989633;28;20441;-88
2022/03/16 08:26:18;;;;;;;1.17;0.90;;;22.00;52.70;;;;;;4972434;28;20597;-88
2022/03/16 08:28:45;;;;;;;1.00;0.80;;;21.90;52.60;;;;;;4972059;28;20451;-88
2022/03/16 08:31:14;;;;;;;1.00;0.80;;;22.00;52.70;;;;;;4972752;28;20432;-88
2022/03/16 08:33:41;;;;;;;1.10;0.80;;;22.00;52.70;;;;;;4989553;28;20420;-89
2022/03/16 08:36:08;;;;;;;1.00;0.87;;;21.90;52.60;;;;;;4972137;28;20512;-89
2022/03/16 08:38:37;;;;;;;1.20;0.90;;;22.00;52.60;;;;;;4989863;28;20413;-89
2022/03/16 08:41:12;;;;;;;1.20;0.90;;;22.00;52.70;;;;;;4972001;28;20413;-89
2022/03/16 08:43:38;;;;;;;0.90;0.73;;;22.00;52.70;;;;;;4971933;28;20432;-89
2022/03/16 08:46:07;;;;;;;1.30;0.90;;;22.00;52.70;;;;;;4971476;28;20435;-90
2022/03/16 08:48:37;;;;;;;1.10;0.80;;;22.00;52.70;;;;;;4972204;28;20436;-90
2022/03/16 08:51:18;;;;;;;;;;;;;;;;;;;;;
2022/03/16 08:53:46;;;;;;;0.93;0.83;;;22.00;52.70;;;;;;4992802;28;20457;-90
2022/03/16 08:56:13;;;;;;;0.90;0.77;;;22.00;52.70;;;;;;4976433;28;20471;-90
2022/03/16 08:58:39;;;;;;;0.90;0.70;;;22.00;52.70;;;;;;4992656;28;20436;-90
2022/03/16 09:01:05;;;;;;;0.90;0.80;;;22.00;52.70;;;;;;4975796;28;20435;-90
2022/03/16 09:03:31;;;;;;;2.13;1.63;;;22.00;52.60;;;;;;4972186;29;20493;-89
2022/03/16 09:05:59;;;;;;;1.07;0.80;;;22.00;52.60;;;;;;4973137;28;20445;-90
2022/03/16 09:08:25;;;;;;;1.30;0.90;;;22.00;52.60;;;;;;4972227;29;20497;-90
2022/03/16 09:10:51;;;;;;;1.10;1.00;;;22.00;52.60;;;;;;4972820;29;20441;-90
2022/03/16 09:13:19;;;;;;;0.93;0.80;;;22.00;52.60;;;;;;4973783;28;20418;-90
2022/03/16 09:15:45;;;;;;;1.00;0.80;;;22.00;52.60;;;;;;4972383;29;20421;-89
2022/03/16 09:18:13;;;;;;;1.03;0.90;;;22.00;52.60;;;;;;4971988;29;20450;-90
2022/03/16 09:20:42;;;;;;;1.17;0.80;;;22.00;52.60;;;;;;4972659;29;20425;-89
2022/03/16 09:23:10;;;;;;;1.10;0.80;;;22.00;52.60;;;;;;4991545;28;20484;-90
2022/03/16 09:25:36;;;;;;;1.30;0.93;;;22.00;52.60;;;;;;4970851;29;20430;-89
2022/03/16 09:28:05;;;;;;;1.10;1.00;;;22.10;52.70;;;;;;4981700;28;20413;-90
2022/03/16 09:33:53;;;;;;;1.07;0.80;;;22.10;52.70;;;;;;4992494;28;20377;-90
2022/03/16 09:36:19;;;;;;;1.20;1.10;;;22.00;52.60;;;;;;4992805;28;20449;-90
2022/03/16 09:38:45;;;;;;;1.40;1.00;;;22.00;52.60;;;;;;4991291;28;20241;-90
2022/03/16 09:41:12;;;;;;;1.50;1.30;;;22.00;52.60;;;;;;4974276;28;20424;-90
2022/03/16 09:43:40;;;;;;;1.20;0.90;;;22.00;52.60;;;;;;4975028;28;20511;-90
2022/03/16 09:46:20;;;;;;;1.77;1.20;;;22.00;52.60;;;;;;4974984;28;20424;-91
2022/03/16 09:48:46;;;;;;;1.17;0.90;;;22.00;52.60;;;;;;4976756;28;20420;-91
2022/03/16 09:51:16;;;;;;;1.00;0.80;;;22.00;52.60;;;;;;4970353;29;20417;-91
2022/03/16 09:53:46;;;;;;;1.10;0.80;;;22.00;52.60;;;;;;4957154;29;20498;-91
2022/03/16 09:56:12;;;;;;;1.37;0.93;;;22.00;52.60;;;;;;4972771;29;20516;-91
2022/03/16 09:58:43;;;;;;;1.10;0.97;;;22.00;52.60;;;;;;4973134;29;20442;-91
2022/03/16 10:01:11;;;;;;;1.10;0.90;;;22.00;52.60;;;;;;4971900;28;20413;-91
2022/03/16 10:03:47;;;;;;;0.90;0.80;;;22.00;52.60;;;;;;4975607;28;20444;-91
2022/03/16 10:06:26;;;;;;;1.17;0.80;;;22.00;52.60;;;;;;4992662;28;20408;-91
2022/03/16 10:13:13;;;;;;;1.07;0.93;;;22.00;52.60;;;;;;4972741;28;20426;-91
2022/03/16 10:15:01;;;;;;;1.10;0.90;;;22.00;52.60;;;;;;4976298;28;20571;-91
2022/03/16 10:17:43;;;;;;;1.13;0.90;;;22.00;52.60;;;;;;4975374;28;20449;-91
2022/03/16 10:20:39;;;;;;;1.10;0.90;;;22.00;52.60;;;;;;4960603;28;20429;-90
2022/03/16 10:23:42;;;;;;;1.20;0.90;;;22.00;52.70;;;;;;4969772;28;20448;-90
2022/03/16 10:26:24;;;;;;;1.00;0.87;;;22.00;52.70;;;;;;4972249;28;20437;-90
2022/03/16 10:28:58;;;;;;;0.90;0.70;;;22.00;52.70;;;;;;4992261;28;20420;-91
2022/03/16 10:31:24;;;;;;;1.20;1.10;;;22.00;52.60;;;;;;4974929;28;20409;-90
2022/03/16 10:33:54;;;;;;;1.20;0.80;;;22.00;52.70;;;;;;4975554;28;20413;-91
2022/03/16 10:36:21;;;;;;;1.10;1.00;;;22.00;52.60;;;;;;4992769;28;20453;-91
2022/03/16 10:38:58;;;;;;;1.37;0.90;;;22.00;52.60;;;;;;4992422;28;20477;-91
2022/03/16 10:47:03;;;;;;;1.30;1.17;;;22.00;52.60;;;;;;4993319;28;20409;-90
2022/03/16 10:49:32;;;;;;;1.20;0.87;;;22.00;52.60;;;;;;4974672;28;20421;-91
2022/03/16 10:52:06;;;;;;;1.50;1.00;;;22.00;52.60;;;;;;4975046;28;20417;-90
2022/03/16 10:54:36;;;;;;;1.10;0.80;;;22.00;52.60;;;;;;4976797;28;20418;-91
2022/03/16 10:57:10;;;;;;;1.47;0.90;;;22.00;52.60;;;;;;4991668;28;20457;-90
2022/03/16 10:59:42;;;;;;;1.23;0.80;;;22.00;52.60;;;;;;4992213;28;20397;-91
2022/03/16 11:02:14;;;;;;;1.30;0.90;;;22.00;52.60;;;;;;4992213;28;20424;-90
2022/03/16 11:04:42;;;;;;;1.00;0.80;;;22.00;52.60;;;;;;4992048;28;20931;-89
2022/03/16 11:07:10;;;;;;;1.20;0.90;;;22.00;52.60;;;;;;4992173;28;20452;-90
2022/03/16 11:09:37;;;;;;;0.90;0.80;;;22.00;52.60;;;;;;4974691;28;20457;-91
2022/03/16 11:14:50;;;;;;;1.13;0.87;;;22.00;52.60;;;;;;4978010;28;20405;-89
2022/03/16 11:17:17;;;;;;;1.00;0.80;;;22.00;52.60;;;;;;4991530;28;20467;-88
2022/03/16 11:19:51;;;;;;;1.27;0.97;;;22.00;52.60;;;;;;4957949;28;20812;-90
2022/03/16 11:22:20;;;;;;;1.20;0.90;;;22.00;52.60;;;;;;4974402;28;20414;-91
2022/03/16 11:25:12;;;;;;;1.20;1.00;;;22.00;52.60;;;;;;4974161;28;20444;-91
2022/03/16 11:27:52;;;;;;;1.50;1.20;;;22.00;52.60;;;;;;4974105;28;20421;-91
2022/03/16 11:30:33;;;;;;;1.10;0.90;;;22.00;52.60;;;;;;4974134;28;20504;-90
2022/03/16 11:33:16;;;;;;;0.97;0.83;;;22.00;52.60;;;;;;4959977;28;20533;-90
2022/03/16 11:35:50;;;;;;;0.97;0.80;;;22.00;52.60;;;;;;4974163;28;20421;-91
2022/03/16 11:38:30;;;;;;;1.10;0.83;;;22.00;52.60;;;;;;4991543;28;20397;-91
2022/03/16 11:40:56;;;;;;;1.40;1.00;;;22.00;52.60;;;;;;4974278;28;20393;-89
2022/03/16 11:43:25;;;;;;;1.00;0.80;;;22.00;52.60;;;;;;4973671;28;20510;-89
2022/03/16 11:45:59;;;;;;;1.10;1.00;;;22.00;52.60;;;;;;4974569;28;20184;-90
2022/03/16 11:48:45;;;;;;;1.30;0.90;;;22.00;52.60;;;;;;4974236;28;20437;-90
2022/03/16 11:51:15;;;;;;;1.33;0.80;;;22.00;52.60;;;;;;4973805;28;20401;-91
2022/03/16 11:53:51;;;;;;;0.80;0.70;;;22.00;52.60;;;;;;4974511;28;20413;-91
2022/03/16 11:56:25;;;;;;;1.27;0.70;;;22.00;52.60;;;;;;4974559;28;20451;-91
2022/03/16 11:58:56;;;;;;;1.10;0.80;;;22.00;52.60;;;;;;4973525;28;20421;-90
2022/03/16 12:01:29;;;;;;;1.33;0.90;;;22.00;52.60;;;;;;4974382;28;20413;-92
2022/03/16 12:04:11;;;;;;;1.30;0.80;;;22.00;52.60;;;;;;4974762;28;20409;-90
2022/03/16 12:07:01;;;;;;;1.10;0.90;;;22.00;52.60;;;;;;4974216;28;20444;-89
2022/03/16 12:09:38;;;;;;;1.00;0.90;;;22.00;52.60;;;;;;4973825;28;20459;-90
2022/03/16 12:15:00;;;;;;;1.00;0.80;;;22.00;52.60;;;;;;4991296;28;20388;-90
2022/03/16 12:17:40;;;;;;;;;;;;;;;;;;;;;
2022/03/16 12:20:11;;;;;;;1.07;0.83;;;22.00;52.60;;;;;;4991408;28;20489;-91
2022/03/16 12:22:49;;;;;;;0.93;0.77;;;22.00;52.60;;;;;;4972980;28;20448;-91
2022/03/16 12:25:39;;;;;;;1.07;0.80;;;22.00;52.50;;;;;;4993753;28;20425;-90
2022/03/16 12:31:00;;;;;;;1.10;0.97;;;22.00;52.50;;;;;;4995710;28;20385;-91
2022/03/16 12:33:49;;;;;;;1.30;0.80;;;22.00;52.50;;;;;;4978662;28;20417;-91
2022/03/16 12:36:28;;;;;;;1.07;0.87;;;22.00;52.60;;;;;;4978746;28;20460;-91
2022/03/16 12:39:13;;;;;;;1.33;0.90;;;22.00;52.60;;;;;;4978162;28;20416;-91
2022/03/16 12:44:24;;;;;;;1.00;0.80;;;22.00;52.60;;;;;;4995287;28;20793;-91
2022/03/16 12:47:07;;;;;;;1.20;0.87;;;22.00;52.60;;;;;;4978103;28;20506;-90
2022/03/16 12:49:46;;;;;;;1.23;0.90;;;22.00;52.60;;;;;;4995895;28;20405;-91
2022/03/16 12:52:12;;;;;;;1.10;0.80;;;22.00;52.60;;;;;;4995644;28;20448;-91
2022/03/16 12:54:43;;;;;;;0.90;0.70;;;22.00;52.60;;;;;;4978886;28;20428;-90
2022/03/16 12:57:15;;;;;;;1.30;0.90;;;22.00;52.60;;;;;;4978608;28;20978;-91
2022/03/16 12:59:48;;;;;;;1.00;0.87;;;22.00;52.60;;;;;;4978441;28;20417;-91
2022/03/16 13:02:22;;;;;;;0.90;0.70;;;22.00;52.60;;;;;;4978113;28;20781;-91
2022/03/16 13:04:57;;;;;;;1.30;0.80;;;22.00;52.50;;;;;;4994943;28;20959;-91
2022/03/16 13:07:25;;;;;;;1.00;0.77;;;22.00;52.50;;;;;;4978499;28;20462;-90
2022/03/16 13:13:19;;;;;;;1.30;0.97;;;22.00;52.50;;;;;;4995492;28;20380;-91
2022/03/16 13:16:01;;;;;;;1.00;0.80;;;22.00;52.60;;;;;;4963375;28;20421;-91
2022/03/16 13:18:41;;;;;;;0.80;0.60;;;22.00;52.60;;;;;;4992761;28;20425;-90
2022/03/16 13:21:28;;;;;;;0.90;0.83;;;22.00;52.60;;;;;;4977756;28;20465;-91
2022/03/16 13:24:05;;;;;;;1.13;0.70;;;22.00;52.60;;;;;;4994424;28;20428;-90
2022/03/16 13:26:32;;;;;;;0.90;0.73;;;22.00;52.60;;;;;;4994330;28;20412;-91
2022/03/16 13:29:12;;;;;;;1.00;0.80;;;22.00;52.60;;;;;;4977790;28;20429;-91
2022/03/16 13:31:40;;;;;;;1.40;0.80;;;22.00;52.60;;;;;;4977621;28;20421;-90
2022/03/16 13:34:08;;;;;;;1.00;0.80;;;22.00;52.60;;;;;;4961837;28;20434;-90
2022/03/16 13:36:42;;;;;;;1.00;0.73;;;22.00;52.60;;;;;;4977512;28;20469;-91
2022/03/16 13:39:26;;;;;;;1.10;1.00;;;22.00;52.60;;;;;;4995149;28;20501;-91
2022/03/16 13:42:13;;;;;;;1.00;0.70;;;22.00;52.60;;;;;;4977352;28;20425;-91
2022/03/16 13:44:49;;;;;;;1.00;0.70;;;22.00;52.60;;;;;;4978124;28;20407;-91
2022/03/16 13:47:26;;;;;;;1.30;0.80;;;22.00;52.60;;;;;;4977631;28;20429;-90
2022/03/16 13:50:44;;;;;;;1.10;0.70;;;22.00;52.60;;;;;;4977380;28;20417;-90